Time;durP1;ratioP1;P1;durP2;ratioP2;P2;SDS_P1;SDS_P2;PMS_P1;PMS_P2;Temp;Humidity;BMP_temperature;BMP_pressure;BME280_temperature;BME280_humidity;BME280_pressure;Samples;Min_cycle;Max_cycle;Signal;HPM_P1;HPM_P2
2021/07/18 00:00:32;;;;;;;13.80;6.55;;;;;;;;;;2048613;28;99952;-14
2021/07/18 00:01:33;;;;;;;14.63;6.68;;;;;;;;;;2048984;28;99956;-13
2021/07/18 00:02:34;;;;;;;;;;;;;;;;;;2049427;28;100150;-13
2021/07/18 00:03:35;;;;;;;11.15;6.32;;;;;;;;;;2048918;28;100623;-12
2021/07/18 00:04:36;;;;;;;10.70;6.90;;;;;;;;;;2048752;28;100066;-13
2021/07/18 00:05:37;;;;;;;;;;;;;;;;;;2049600;28;100057;-12
2021/07/18 00:06:38;;;;;;;13.43;6.82;;;;;;;;;;2048562;28;100044;-13
2021/07/18 00:07:39;;;;;;;12.98;6.57;;;;;;;;;;2049179;28;99978;-14
2021/07/18 00:08:40;;;;;;;11.23;6.75;;;;;;;;;;2048539;28;99922;-14
2021/07/18 00:09:41;;;;;;;;;;;;;;;;;;2048478;28;100004;-13
2021/07/18 00:10:42;;;;;;;10.70;6.32;;;;;;;;;;2048178;28;100043;-13
2021/07/18 00:11:46;;;;;;;11.23;6.80;;;;;;;;;;2049221;28;100002;-15
2021/07/18 00:12:46;;;;;;;;;;;;;;;;;;2048870;28;100033;-13
2021/07/18 00:13:47;;;;;;;10.80;6.43;;;;;;;;;;2049089;28;99993;-14
2021/07/18 00:14:48;;;;;;;;;;;;;;;;;;2049146;28;100122;-15
2021/07/18 00:15:49;;;;;;;12.60;6.28;;;;;;;;;;2048839;28;100385;-14
2021/07/18 00:16:50;;;;;;;12.25;6.50;;;;;;;;;;2048326;28;99892;-14
2021/07/18 00:17:51;;;;;;;12.15;6.90;;;;;;;;;;2048913;28;99863;-13
2021/07/18 00:18:52;;;;;;;;;;;;;;;;;;2050127;28;100064;-15
2021/07/18 00:19:53;;;;;;;14.82;6.53;;;;;;;;;;2055467;28;99926;-16
2021/07/18 00:20:55;;;;;;;13.55;6.22;;;;;;;;;;2047797;28;99982;-13
2021/07/18 00:21:56;;;;;;;12.80;6.68;;;;;;;;;;2048353;28;99947;-13
2021/07/18 00:22:57;;;;;;;12.25;7.10;;;;;;;;;;2055707;28;100131;-13
2021/07/18 00:23:57;;;;;;;;;;;;;;;;;;2057460;28;99995;-14
2021/07/18 00:24:58;;;;;;;11.57;7.03;;;;;;;;;;2056695;28;99976;-13
2021/07/18 00:25:59;;;;;;;13.73;7.47;;;;;;;;;;2056779;28;99967;-14
2021/07/18 00:27:00;;;;;;;;;;;;;;;;;;2057331;28;99925;-14
2021/07/18 00:28:03;;;;;;;10.43;6.85;;;;;;;;;;2056449;28;99892;-14
2021/07/18 00:29:04;;;;;;;14.32;7.57;;;;;;;;;;2056218;28;99873;-13
2021/07/18 00:30:05;;;;;;;;;;;;;;;;;;2057677;28;100278;-14
2021/07/18 00:31:06;;;;;;;11.35;6.35;;;;;;;;;;2056427;28;100059;-14
2021/07/18 00:32:12;;;;;;;15.75;7.20;;;;;;;;;;2057332;28;99781;-14
2021/07/18 00:33:14;;;;;;;10.45;7.05;;;;;;;;;;2056488;28;100028;-14
2021/07/18 00:34:15;;;;;;;11.35;6.28;;;;;;;;;;2057000;28;99851;-13
2021/07/18 00:35:16;;;;;;;13.10;6.75;;;;;;;;;;2056169;28;100030;-15
2021/07/18 00:36:19;;;;;;;9.10;6.75;;;;;;;;;;2056318;28;100115;-14
2021/07/18 00:37:20;;;;;;;12.95;6.75;;;;;;;;;;2056096;28;100043;-13
2021/07/18 00:38:21;;;;;;;;;;;;;;;;;;2056686;28;100017;-13
2021/07/18 00:39:23;;;;;;;12.40;6.88;;;;;;;;;;2057048;28;99916;-13
2021/07/18 00:40:30;;;;;;;11.48;6.97;;;;;;;;;;2056913;28;99783;-13
2021/07/18 00:41:38;;;;;;;10.02;6.40;;;;;;;;;;2056443;28;100105;-13
2021/07/18 00:42:39;;;;;;;;;;;;;;;;;;2057146;28;99857;-12
2021/07/18 00:43:41;;;;;;;9.00;6.88;;;;;;;;;;2056313;28;99853;-13
2021/07/18 00:44:41;;;;;;;10.82;6.78;;;;;;;;;;2056378;28;100000;-13
2021/07/18 00:45:42;;;;;;;;;;;;;;;;;;2048009;28;99856;-14
2021/07/18 00:46:43;;;;;;;8.82;6.68;;;;;;;;;;2056210;28;100779;-14
2021/07/18 00:47:44;;;;;;;12.23;7.05;;;;;;;;;;2056828;28;100029;-14
2021/07/18 00:48:45;;;;;;;8.48;6.22;;;;;;;;;;2055927;28;100074;-14
2021/07/18 00:49:47;;;;;;;;;;;;;;;;;;2056423;28;100021;-13
2021/07/18 00:50:48;;;;;;;10.07;7.18;;;;;;;;;;2056080;28;100115;-13
2021/07/18 00:52:07;;;;;;;11.40;7.22;;;;;;;;;;2056192;28;100168;-14
2021/07/18 00:53:08;;;;;;;13.13;7.00;;;;;;;;;;2056408;28;99979;-13
2021/07/18 00:54:09;;;;;;;;;;;;;;;;;;2057263;28;99973;-14
2021/07/18 00:55:14;;;;;;;12.77;6.18;;;;;;;;;;2057009;28;99966;-12
2021/07/18 00:56:15;;;;;;;10.82;6.32;;;;;;;;;;2056525;28;100160;-14
2021/07/18 00:57:16;;;;;;;7.63;6.03;;;;;;;;;;2056881;28;99888;-12
2021/07/18 00:58:18;;;;;;;9.77;6.30;;;;;;;;;;2056742;28;99999;-13
2021/07/18 00:59:27;;;;;;;9.60;6.30;;;;;;;;;;2055754;28;100088;-14
2021/07/18 01:00:28;;;;;;;9.70;6.82;;;;;;;;;;2047636;28;99959;-14
2021/07/18 01:01:29;;;;;;;;;;;;;;;;;;2056668;28;100094;-13
2021/07/18 01:02:30;;;;;;;9.75;5.75;;;;;;;;;;2056769;28;99820;-13
2021/07/18 01:03:31;;;;;;;7.72;6.63;;;;;;;;;;2056968;28;99972;-13
2021/07/18 01:04:32;;;;;;;11.57;6.72;;;;;;;;;;2056771;28;99840;-13
2021/07/18 01:05:34;;;;;;;10.63;6.63;;;;;;;;;;2047891;28;100193;-13
2021/07/18 01:06:35;;;;;;;9.80;6.60;;;;;;;;;;2040035;28;100101;-13
2021/07/18 01:07:37;;;;;;;10.18;6.90;;;;;;;;;;2048178;28;100035;-14
2021/07/18 01:08:38;;;;;;;8.27;5.97;;;;;;;;;;2056268;28;100136;-13
2021/07/18 01:09:39;;;;;;;10.70;6.32;;;;;;;;;;2048100;28;100099;-13
2021/07/18 01:10:40;;;;;;;;;;;;;;;;;;2056741;28;99838;-13
2021/07/18 01:11:41;;;;;;;11.23;6.60;;;;;;;;;;2056430;28;99832;-13
2021/07/18 01:12:42;;;;;;;9.40;6.72;;;;;;;;;;2056639;28;101233;-13
2021/07/18 01:13:43;;;;;;;12.30;6.75;;;;;;;;;;2057113;28;99771;-12
2021/07/18 01:14:44;;;;;;;;;;;;;;;;;;2056982;28;99965;-12
2021/07/18 01:15:45;;;;;;;10.60;6.53;;;;;;;;;;2056427;28;99954;-14
2021/07/18 01:16:47;;;;;;;10.23;7.05;;;;;;;;;;2056191;28;100110;-14
2021/07/18 01:17:51;;;;;;;8.18;5.75;;;;;;;;;;2055819;28;100113;-13
2021/07/18 01:18:51;;;;;;;9.85;5.93;;;;;;;;;;2048535;28;100022;-12
2021/07/18 01:19:53;;;;;;;;;;;;;;;;;;2056263;28;99807;-13
2021/07/18 01:20:55;;;;;;;9.40;6.22;;;;;;;;;;2056752;28;99981;-15
2021/07/18 01:21:58;;;;;;;6.90;5.90;;;;;;;;;;2056532;28;99911;-13
2021/07/18 01:23:02;;;;;;;8.30;5.75;;;;;;;;;;2056810;28;99861;-13
2021/07/18 01:24:04;;;;;;;9.88;6.72;;;;;;;;;;2048252;28;100005;-13
2021/07/18 01:25:08;;;;;;;10.00;6.15;;;;;;;;;;2048385;28;100066;-13
2021/07/18 01:26:09;;;;;;;11.77;6.13;;;;;;;;;;2056623;28;99977;-13
2021/07/18 01:27:10;;;;;;;12.52;6.80;;;;;;;;;;2047585;28;100403;-13
2021/07/18 01:28:13;;;;;;;7.72;6.18;;;;;;;;;;2048001;28;100072;-14
2021/07/18 01:29:14;;;;;;;8.05;5.90;;;;;;;;;;2056682;28;99956;-12
2021/07/18 01:30:15;;;;;;;10.93;6.35;;;;;;;;;;2056163;28;99961;-14
2021/07/18 01:31:17;;;;;;;8.93;6.32;;;;;;;;;;2056006;28;99990;-14
2021/07/18 01:32:18;;;;;;;9.07;6.32;;;;;;;;;;2056765;28;100063;-13
2021/07/18 01:33:19;;;;;;;6.95;5.57;;;;;;;;;;2056905;28;99922;-13
2021/07/18 01:34:20;;;;;;;;;;;;;;;;;;2057236;28;100083;-13
2021/07/18 01:35:21;;;;;;;8.48;5.93;;;;;;;;;;2056534;28;100133;-13
2021/07/18 01:36:22;;;;;;;9.00;5.97;;;;;;;;;;2047684;28;99997;-13
2021/07/18 01:37:23;;;;;;;;;;;;;;;;;;2048191;28;99956;-14
2021/07/18 01:38:24;;;;;;;7.70;6.32;;;;;;;;;;2055898;28;100034;-12
2021/07/18 01:39:25;;;;;;;7.30;6.10;;;;;;;;;;2039735;28;100187;-14
2021/07/18 01:40:26;;;;;;;;;;;;;;;;;;2048341;28;99927;-13
2021/07/18 01:41:26;;;;;;;10.73;5.75;;;;;;;;;;2056758;28;99999;-15
2021/07/18 01:42:27;;;;;;;;;;;;;;;;;;2056734;28;99946;-12
2021/07/18 01:43:28;;;;;;;8.57;6.00;;;;;;;;;;2056403;28;99844;-13
2021/07/18 01:44:29;;;;;;;12.45;6.20;;;;;;;;;;2056481;28;99975;-13
2021/07/18 01:45:30;;;;;;;;;;;;;;;;;;2040251;28;100137;-13
2021/07/18 01:46:32;;;;;;;9.98;5.80;;;;;;;;;;2047792;28;100396;-13
2021/07/18 01:47:33;;;;;;;9.10;6.50;;;;;;;;;;2056193;28;99816;-15
2021/07/18 01:48:34;;;;;;;10.23;6.57;;;;;;;;;;2055765;28;99988;-13
2021/07/18 01:49:35;;;;;;;;;;;;;;;;;;2048432;28;99964;-13
2021/07/18 01:50:36;;;;;;;10.30;5.97;;;;;;;;;;2055782;28;100078;-12
2021/07/18 01:51:38;;;;;;;16.05;6.70;;;;;;;;;;2056713;28;100025;-13
2021/07/18 01:52:39;;;;;;;8.43;6.40;;;;;;;;;;2056703;28;100006;-13
2021/07/18 01:53:40;;;;;;;8.43;6.78;;;;;;;;;;2055780;28;100026;-13
2021/07/18 01:54:42;;;;;;;10.13;7.20;;;;;;;;;;2047327;28;100079;-13
2021/07/18 01:55:42;;;;;;;;;;;;;;;;;;2056159;28;99881;-13
2021/07/18 01:56:43;;;;;;;9.18;6.80;;;;;;;;;;2049902;28;100013;-14
2021/07/18 01:57:45;;;;;;;8.93;6.88;;;;;;;;;;2047756;28;100144;-14
2021/07/18 01:58:48;;;;;;;11.57;6.85;;;;;;;;;;2039887;28;100231;-13
2021/07/18 01:59:49;;;;;;;9.30;6.30;;;;;;;;;;2039899;28;100065;-14
2021/07/18 02:00:50;;;;;;;8.70;6.80;;;;;;;;;;2047745;28;100100;-14
2021/07/18 02:01:51;;;;;;;;;;;;;;;;;;2048239;28;100146;-15
2021/07/18 02:02:52;;;;;;;11.68;7.50;;;;;;;;;;2047362;28;100039;-14
2021/07/18 02:03:55;;;;;;;11.80;7.60;;;;;;;;;;2048604;28;99973;-14
2021/07/18 02:04:56;;;;;;;12.95;8.07;;;;;;;;;;2049131;28;100192;-14
2021/07/18 02:05:56;;;;;;;;;;;;;;;;;;2049183;28;99989;-16
2021/07/18 02:06:58;;;;;;;12.35;7.20;;;;;;;;;;2047665;28;99897;-15
2021/07/18 02:07:59;;;;;;;10.65;7.65;;;;;;;;;;2039832;28;100061;-14
2021/07/18 02:09:00;;;;;;;;;;;;;;;;;;2032138;28;99885;-14
2021/07/18 02:10:03;;;;;;;8.38;7.10;;;;;;;;;;2040185;28;99819;-15
2021/07/18 02:11:05;;;;;;;9.15;7.32;;;;;;;;;;2039172;28;100395;-15
2021/07/18 02:12:07;;;;;;;8.35;7.20;;;;;;;;;;2031938;28;99961;-14
2021/07/18 02:13:08;;;;;;;11.63;8.05;;;;;;;;;;2039747;28;99959;-13
2021/07/18 02:14:09;;;;;;;;;;;;;;;;;;2047491;28;100444;-13
2021/07/18 02:15:12;;;;;;;9.43;6.78;;;;;;;;;;2047493;28;100415;-14
2021/07/18 02:16:13;;;;;;;9.90;7.35;;;;;;;;;;2047614;28;100144;-14
2021/07/18 02:17:14;;;;;;;;;;;;;;;;;;2047954;28;99954;-13
2021/07/18 02:18:15;;;;;;;13.27;6.68;;;;;;;;;;2048034;28;99947;-13
2021/07/18 02:19:16;;;;;;;9.70;7.47;;;;;;;;;;2047796;28;101240;-14
2021/07/18 02:20:20;;;;;;;10.88;8.13;;;;;;;;;;2047447;28;100040;-13
2021/07/18 02:21:22;;;;;;;11.68;7.63;;;;;;;;;;2047533;28;100066;-15
2021/07/18 02:22:53;;;;;;;13.95;7.90;;;;;;;;;;2048125;28;99776;-13
2021/07/18 02:23:54;;;;;;;11.52;7.82;;;;;;;;;;2047205;28;99952;-14
2021/07/18 02:24:55;;;;;;;9.50;7.40;;;;;;;;;;2047609;28;100193;-13
2021/07/18 02:25:55;;;;;;;9.43;8.07;;;;;;;;;;2048455;28;99931;-14
2021/07/18 02:26:57;;;;;;;11.88;8.13;;;;;;;;;;2048548;28;100059;-14
2021/07/18 02:27:58;;;;;;;11.15;8.13;;;;;;;;;;2047415;28;100026;-13
2021/07/18 02:28:59;;;;;;;;;;;;;;;;;;2048046;28;99987;-14
2021/07/18 02:30:00;;;;;;;13.07;7.93;;;;;;;;;;2047611;28;99911;-14
2021/07/18 02:31:05;;;;;;;10.65;7.63;;;;;;;;;;2047638;28;100077;-14
2021/07/18 02:32:06;;;;;;;10.27;7.32;;;;;;;;;;2047369;28;100052;-14
2021/07/18 02:33:07;;;;;;;12.32;7.80;;;;;;;;;;2047384;28;99889;-13
2021/07/18 02:34:08;;;;;;;9.52;7.20;;;;;;;;;;2047909;28;99869;-13
2021/07/18 02:35:10;;;;;;;;;;;;;;;;;;2048707;28;100147;-13
2021/07/18 02:36:11;;;;;;;11.43;8.02;;;;;;;;;;2048363;28;99799;-13
2021/07/18 02:37:12;;;;;;;;;;;;;;;;;;2048594;28;99975;-13
2021/07/18 02:38:13;;;;;;;13.70;7.72;;;;;;;;;;2048227;28;99785;-12
2021/07/18 02:39:14;;;;;;;10.32;8.13;;;;;;;;;;2048068;28;100008;-13
2021/07/18 02:40:16;;;;;;;10.18;7.07;;;;;;;;;;2048179;28;99930;-13
2021/07/18 02:41:17;;;;;;;10.32;6.95;;;;;;;;;;2047353;28;99955;-14
2021/07/18 02:42:18;;;;;;;13.82;8.20;;;;;;;;;;2047580;28;99930;-14
2021/07/18 02:43:19;;;;;;;;;;;;;;;;;;2047874;28;99864;-13
2021/07/18 02:44:20;;;;;;;11.10;7.78;;;;;;;;;;2047207;28;100026;-13
2021/07/18 02:45:23;;;;;;;11.32;7.80;;;;;;;;;;2039372;28;99900;-14
2021/07/18 02:46:24;;;;;;;11.23;8.20;;;;;;;;;;2040073;28;100052;-15
2021/07/18 02:47:24;;;;;;;;;;;;;;;;;;2048518;28;99839;-14
2021/07/18 02:48:26;;;;;;;12.82;8.52;;;;;;;;;;2048395;28;99968;-13
2021/07/18 02:49:26;;;;;;;10.98;7.35;;;;;;;;;;2047870;28;99989;-14
2021/07/18 02:50:28;;;;;;;;;;;;;;;;;;2048640;28;99943;-13
2021/07/18 02:51:29;;;;;;;10.88;7.43;;;;;;;;;;2047441;28;100278;-14
2021/07/18 02:52:29;;;;;;;;;;;;;;;;;;2048115;28;99891;-13
2021/07/18 02:53:31;;;;;;;11.20;8.15;;;;;;;;;;2047813;28;99911;-13
2021/07/18 02:54:32;;;;;;;12.13;7.85;;;;;;;;;;2049478;28;99867;-15
2021/07/18 02:55:33;;;;;;;11.75;7.72;;;;;;;;;;2049336;28;99989;-13
2021/07/18 02:56:33;;;;;;;;;;;;;;;;;;2049898;28;99782;-13
2021/07/18 02:57:34;;;;;;;10.35;7.45;;;;;;;;;;2048806;28;100042;-14
2021/07/18 02:58:35;;;;;;;11.57;7.03;;;;;;;;;;2048799;28;100092;-14
2021/07/18 02:59:36;;;;;;;12.00;8.52;;;;;;;;;;2049327;28;100889;-14
2021/07/18 03:00:37;;;;;;;;;;;;;;;;;;2049925;28;99942;-13
2021/07/18 03:01:38;;;;;;;14.00;7.95;;;;;;;;;;2049359;28;100278;-15
2021/07/18 03:02:40;;;;;;;;;;;;;;;;;;2050166;28;100053;-14
2021/07/18 03:03:41;;;;;;;8.93;7.53;;;;;;;;;;2049368;28;100340;-12
2021/07/18 03:04:41;;;;;;;;;;;;;;;;;;2049204;28;100062;-12
2021/07/18 03:05:42;;;;;;;10.95;8.43;;;;;;;;;;2049013;28;99905;-12
2021/07/18 03:06:43;;;;;;;10.40;7.40;;;;;;;;;;2049548;28;100036;-14
2021/07/18 03:07:44;;;;;;;;;;;;;;;;;;2049794;28;99952;-13
2021/07/18 03:08:45;;;;;;;11.00;7.90;;;;;;;;;;2049502;28;99958;-13
2021/07/18 03:09:46;;;;;;;10.25;7.45;;;;;;;;;;2048577;28;100080;-13
2021/07/18 03:10:47;;;;;;;;;;;;;;;;;;2041295;28;99973;-14
2021/07/18 03:11:48;;;;;;;10.97;8.07;;;;;;;;;;2048726;28;100240;-13
2021/07/18 03:12:49;;;;;;;;;;;;;;;;;;2050058;28;99996;-13
2021/07/18 03:13:50;;;;;;;11.43;8.60;;;;;;;;;;2048756;28;99855;-13
2021/07/18 03:14:50;;;;;;;13.90;8.43;;;;;;;;;;2048867;28;100042;-13
2021/07/18 03:15:52;;;;;;;;;;;;;;;;;;2049614;28;99787;-12
2021/07/18 03:16:52;;;;;;;11.68;8.27;;;;;;;;;;2049306;28;99973;-13
2021/07/18 03:17:53;;;;;;;10.40;7.78;;;;;;;;;;2049460;28;99791;-13
2021/07/18 03:18:54;;;;;;;12.60;8.32;;;;;;;;;;2049500;28;100050;-14
2021/07/18 03:19:55;;;;;;;;;;;;;;;;;;2048865;28;99923;-13
2021/07/18 03:20:57;;;;;;;11.52;8.35;;;;;;;;;;2048716;28;100070;-14
2021/07/18 03:21:58;;;;;;;12.18;8.23;;;;;;;;;;2048882;28;100563;-14
2021/07/18 03:22:58;;;;;;;;;;;;;;;;;;2049324;28;99907;-13
2021/07/18 03:24:01;;;;;;;10.52;8.07;;;;;;;;;;2049454;28;100009;-12
2021/07/18 03:25:04;;;;;;;12.57;8.35;;;;;;;;;;2048991;28;99858;-12
2021/07/18 03:26:05;;;;;;;10.80;8.00;;;;;;;;;;2048893;28;100115;-13
2021/07/18 03:27:06;;;;;;;;;;;;;;;;;;2049882;28;99906;-13
2021/07/18 03:28:07;;;;;;;11.32;7.57;;;;;;;;;;2049455;28;99981;-12
2021/07/18 03:29:07;;;;;;;;;;;;;;;;;;2049851;28;99998;-12
2021/07/18 03:30:11;;;;;;;9.40;7.40;;;;;;;;;;2049071;28;99993;-13
2021/07/18 03:31:13;;;;;;;10.00;7.93;;;;;;;;;;2049281;28;99844;-12
2021/07/18 03:32:14;;;;;;;9.75;7.22;;;;;;;;;;2049181;28;99947;-14
2021/07/18 03:33:15;;;;;;;;;;;;;;;;;;2049794;28;99937;-12
2021/07/18 03:34:16;;;;;;;11.80;7.85;;;;;;;;;;2048310;28;100107;-13
2021/07/18 03:35:17;;;;;;;10.18;7.78;;;;;;;;;;2048637;28;100166;-13
2021/07/18 03:36:18;;;;;;;10.10;7.65;;;;;;;;;;2049343;28;100049;-12
2021/07/18 03:37:19;;;;;;;;;;;;;;;;;;2049632;28;100055;-13
2021/07/18 03:38:19;;;;;;;10.68;7.75;;;;;;;;;;2049345;28;99902;-14
2021/07/18 03:39:20;;;;;;;;;;;;;;;;;;2049605;28;100005;-13
2021/07/18 03:40:21;;;;;;;11.00;7.90;;;;;;;;;;2049252;28;99957;-12
2021/07/18 03:41:22;;;;;;;;;;;;;;;;;;2048842;28;99868;-12
2021/07/18 03:42:23;;;;;;;9.73;7.63;;;;;;;;;;2048593;28;99843;-13
2021/07/18 03:43:24;;;;;;;10.20;7.75;;;;;;;;;;2049077;28;99983;-12
2021/07/18 03:44:25;;;;;;;;;;;;;;;;;;2049559;28;99990;-12
2021/07/18 03:45:25;;;;;;;11.68;8.05;;;;;;;;;;2049176;28;99930;-13
2021/07/18 03:46:26;;;;;;;10.32;7.95;;;;;;;;;;2049211;28;99922;-13
2021/07/18 03:47:28;;;;;;;12.02;7.55;;;;;;;;;;2049386;28;99887;-14
2021/07/18 03:48:31;;;;;;;;;;;;;;;;;;2049462;28;99883;-13
2021/07/18 03:49:33;;;;;;;10.93;7.88;;;;;;;;;;2048898;28;99904;-13
2021/07/18 03:50:34;;;;;;;10.85;8.20;;;;;;;;;;2049079;28;99942;-13
2021/07/18 03:51:35;;;;;;;10.55;7.28;;;;;;;;;;2048428;28;99951;-12
2021/07/18 03:52:37;;;;;;;10.45;8.02;;;;;;;;;;2048717;28;100061;-12
2021/07/18 03:53:38;;;;;;;9.63;7.63;;;;;;;;;;2049387;28;99890;-12
2021/07/18 03:54:38;;;;;;;;;;;;;;;;;;2049672;28;99946;-13
2021/07/18 03:55:39;;;;;;;11.35;8.02;;;;;;;;;;2048335;28;100005;-13
2021/07/18 03:56:40;;;;;;;;;;;;;;;;;;2048835;28;99942;-13
2021/07/18 03:57:42;;;;;;;9.05;7.13;;;;;;;;;;2048574;28;100091;-13
2021/07/18 03:58:43;;;;;;;8.80;7.55;;;;;;;;;;2048368;28;100018;-14
2021/07/18 03:59:44;;;;;;;8.95;7.22;;;;;;;;;;2048104;28;100214;-12
2021/07/18 04:00:45;;;;;;;;;;;;;;;;;;2049446;28;99922;-13
2021/07/18 04:01:46;;;;;;;11.68;7.65;;;;;;;;;;2049134;28;99954;-12
2021/07/18 04:02:47;;;;;;;14.13;7.88;;;;;;;;;;2048974;28;100026;-13
2021/07/18 04:03:48;;;;;;;11.15;7.93;;;;;;;;;;2048773;28;99881;-13
2021/07/18 04:04:49;;;;;;;10.52;7.55;;;;;;;;;;2049253;28;100021;-12
2021/07/18 04:05:50;;;;;;;11.18;7.65;;;;;;;;;;2048103;28;100044;-13
2021/07/18 04:06:50;;;;;;;;;;;;;;;;;;2049838;28;99862;-14
2021/07/18 04:07:52;;;;;;;10.77;8.63;;;;;;;;;;2049512;28;99953;-14
2021/07/18 04:08:52;;;;;;;9.52;7.22;;;;;;;;;;2049020;28;99852;-13
2021/07/18 04:09:53;;;;;;;;;;;;;;;;;;2049649;28;99895;-13
2021/07/18 04:10:54;;;;;;;11.77;8.13;;;;;;;;;;2049102;28;100048;-14
2021/07/18 04:11:55;;;;;;;8.48;6.95;;;;;;;;;;2049025;28;99894;-13
2021/07/18 04:12:58;;;;;;;10.45;7.45;;;;;;;;;;2048914;28;99848;-13
2021/07/18 04:13:59;;;;;;;10.40;7.63;;;;;;;;;;2048910;28;100046;-13
2021/07/18 04:15:00;;;;;;;;;;;;;;;;;;2048946;28;99951;-13
2021/07/18 04:16:01;;;;;;;10.20;8.07;;;;;;;;;;2048158;28;99919;-12
2021/07/18 04:17:01;;;;;;;;;;;;;;;;;;2049135;28;100051;-12
2021/07/18 04:18:09;;;;;;;11.48;7.65;;;;;;;;;;2049215;28;99891;-12
2021/07/18 04:19:10;;;;;;;10.38;7.60;;;;;;;;;;2048270;28;100257;-13
2021/07/18 04:20:12;;;;;;;9.75;7.78;;;;;;;;;;2040397;28;100015;-13
2021/07/18 04:21:13;;;;;;;10.07;8.38;;;;;;;;;;2048193;28;99994;-14
2021/07/18 04:22:14;;;;;;;9.77;7.63;;;;;;;;;;2049082;28;99838;-13
2021/07/18 04:23:16;;;;;;;;;;;;;;;;;;2049284;28;99843;-13
2021/07/18 04:24:17;;;;;;;9.85;7.78;;;;;;;;;;2040316;28;100087;-13
2021/07/18 04:25:18;;;;;;;;;;;;;;;;;;2041044;28;100027;-12
2021/07/18 04:26:19;;;;;;;11.68;7.38;;;;;;;;;;2049063;28;99849;-13
2021/07/18 04:27:20;;;;;;;9.70;7.55;;;;;;;;;;2048932;28;99969;-12
2021/07/18 04:28:21;;;;;;;10.18;7.30;;;;;;;;;;2049160;28;99886;-13
2021/07/18 04:29:22;;;;;;;9.98;7.43;;;;;;;;;;2047992;28;100028;-12
2021/07/18 04:30:23;;;;;;;;;;;;;;;;;;2048847;28;99954;-12
2021/07/18 04:31:23;;;;;;;9.85;7.55;;;;;;;;;;2048796;28;99757;-13
2021/07/18 04:32:24;;;;;;;;;;;;;;;;;;2049658;28;99931;-12
2021/07/18 04:33:25;;;;;;;9.52;7.75;;;;;;;;;;2048266;28;100109;-13
2021/07/18 04:34:26;;;;;;;9.77;7.78;;;;;;;;;;2047977;28;100349;-13
2021/07/18 04:35:27;;;;;;;8.10;6.90;;;;;;;;;;2048800;28;100030;-13
2021/07/18 04:36:27;;;;;;;;;;;;;;;;;;2049694;28;99871;-12
2021/07/18 04:37:28;;;;;;;9.10;7.22;;;;;;;;;;2048699;28;99820;-12
2021/07/18 04:38:29;;;;;;;10.00;7.25;;;;;;;;;;2049240;28;100580;-13
2021/07/18 04:39:30;;;;;;;;;;;;;;;;;;2049104;28;99969;-13
2021/07/18 04:40:31;;;;;;;8.68;7.57;;;;;;;;;;2048745;28;99816;-13
2021/07/18 04:41:32;;;;;;;8.40;6.75;;;;;;;;;;2048744;28;99969;-13
2021/07/18 04:42:33;;;;;;;8.10;6.95;;;;;;;;;;2048683;28;99823;-13
2021/07/18 04:43:34;;;;;;;;;;;;;;;;;;2049462;28;100440;-12
2021/07/18 04:44:35;;;;;;;9.35;7.05;;;;;;;;;;2048758;28;100033;-12
2021/07/18 04:45:36;;;;;;;;;;;;;;;;;;2049449;28;99941;-12
2021/07/18 04:46:37;;;;;;;8.15;6.68;;;;;;;;;;2049060;28;99976;-13
2021/07/18 04:47:49;;;;;;;8.98;7.00;;;;;;;;;;2048878;28;99937;-13
2021/07/18 04:48:50;;;;;;;10.38;7.32;;;;;;;;;;2049022;28;99818;-12
2021/07/18 04:49:52;;;;;;;9.88;7.30;;;;;;;;;;2048978;28;99806;-14
2021/07/18 04:50:53;;;;;;;8.20;6.82;;;;;;;;;;2048971;28;99799;-13
2021/07/18 04:51:54;;;;;;;;;;;;;;;;;;2048220;28;100301;-12
2021/07/18 04:52:55;;;;;;;9.65;7.68;;;;;;;;;;2048266;28;99863;-13
2021/07/18 04:53:56;;;;;;;11.02;7.25;;;;;;;;;;2048596;28;99966;-13
2021/07/18 04:54:57;;;;;;;;;;;;;;;;;;2049189;28;100088;-13
2021/07/18 04:55:58;;;;;;;10.90;7.60;;;;;;;;;;2048912;28;100043;-13
2021/07/18 04:56:59;;;;;;;8.68;7.15;;;;;;;;;;2048327;28;100255;-13
2021/07/18 04:58:00;;;;;;;;;;;;;;;;;;2048449;28;99900;-15
2021/07/18 04:59:01;;;;;;;7.97;6.93;;;;;;;;;;2048906;28;99838;-12
2021/07/18 05:00:08;;;;;;;9.07;7.25;;;;;;;;;;2048508;28;99818;-13
2021/07/18 05:01:09;;;;;;;9.88;7.70;;;;;;;;;;2049085;28;99989;-12
2021/07/18 05:02:10;;;;;;;9.43;6.90;;;;;;;;;;2048798;28;99780;-12
2021/07/18 05:03:10;;;;;;;;;;;;;;;;;;2049533;28;99771;-12
2021/07/18 05:04:11;;;;;;;9.23;6.72;;;;;;;;;;2049034;28;99760;-12
2021/07/18 05:05:14;;;;;;;9.05;7.38;;;;;;;;;;2049008;28;99907;-13
2021/07/18 05:06:15;;;;;;;8.18;6.78;;;;;;;;;;2047950;28;100087;-12
2021/07/18 05:07:16;;;;;;;;;;;;;;;;;;2048547;28;100099;-12
2021/07/18 05:08:16;;;;;;;9.13;7.00;;;;;;;;;;2048247;28;100054;-12
2021/07/18 05:09:17;;;;;;;;;;;;;;;;;;2048855;28;100042;-12
2021/07/18 05:10:20;;;;;;;8.18;6.60;;;;;;;;;;2049401;28;100058;-13
2021/07/18 05:11:21;;;;;;;7.95;6.38;;;;;;;;;;2047959;28;99910;-12
2021/07/18 05:12:22;;;;;;;8.80;6.90;;;;;;;;;;2039629;28;99990;-12
2021/07/18 05:13:22;;;;;;;;;;;;;;;;;;2048586;28;99854;-12
2021/07/18 05:14:23;;;;;;;7.80;6.63;;;;;;;;;;2048798;28;99798;-12
2021/07/18 05:15:27;;;;;;;9.05;7.30;;;;;;;;;;2048161;28;99852;-13
2021/07/18 05:16:30;;;;;;;8.40;6.72;;;;;;;;;;2040309;28;100000;-11
2021/07/18 05:17:31;;;;;;;7.80;6.90;;;;;;;;;;2039372;28;99894;-12
2021/07/18 05:18:32;;;;;;;;;;;;;;;;;;2039909;28;99915;-12
2021/07/18 05:19:33;;;;;;;8.60;6.88;;;;;;;;;;2048198;28;100088;-12
2021/07/18 05:20:34;;;;;;;7.10;6.20;;;;;;;;;;2048855;28;100018;-12
2021/07/18 05:21:35;;;;;;;;;;;;;;;;;;2049076;28;99854;-12
2021/07/18 05:22:36;;;;;;;7.95;6.30;;;;;;;;;;2048627;28;99894;-12
2021/07/18 05:23:37;;;;;;;8.32;6.78;;;;;;;;;;2048368;28;99875;-12
2021/07/18 05:24:38;;;;;;;8.38;6.85;;;;;;;;;;2048842;28;99940;-12
2021/07/18 05:25:39;;;;;;;8.13;7.00;;;;;;;;;;2048406;28;99801;-12
2021/07/18 05:26:41;;;;;;;8.80;6.88;;;;;;;;;;2048531;28;100098;-12
2021/07/18 05:27:42;;;;;;;;;;;;;;;;;;2048857;28;99982;-12
2021/07/18 05:28:43;;;;;;;10.18;6.97;;;;;;;;;;2048766;28;99763;-13
2021/07/18 05:29:44;;;;;;;8.43;6.60;;;;;;;;;;2048755;28;99989;-22
2021/07/18 05:30:45;;;;;;;;;;;;;;;;;;2049091;28;100058;-14
2021/07/18 05:31:46;;;;;;;7.70;7.00;;;;;;;;;;2048238;28;100032;-12
2021/07/18 05:32:46;;;;;;;8.10;6.53;;;;;;;;;;2048452;28;99865;-12
2021/07/18 05:33:47;;;;;;;8.30;7.15;;;;;;;;;;2048091;28;100012;-13
2021/07/18 05:34:49;;;;;;;9.73;7.05;;;;;;;;;;2047941;28;99927;-12
2021/07/18 05:35:52;;;;;;;8.43;6.60;;;;;;;;;;2039891;28;99798;-13
2021/07/18 05:36:53;;;;;;;6.88;6.18;;;;;;;;;;2048249;28;100015;-12
2021/07/18 05:37:53;;;;;;;;;;;;;;;;;;2048724;28;99977;-12
2021/07/18 05:38:54;;;;;;;7.65;6.40;;;;;;;;;;2048428;28;99934;-12
2021/07/18 05:39:55;;;;;;;;;;;;;;;;;;2048945;28;99747;-12
2021/07/18 05:40:56;;;;;;;8.07;7.10;;;;;;;;;;2048543;28;100078;-11
2021/07/18 05:41:59;;;;;;;;;;;;;;;;;;2048714;28;99952;-12
2021/07/18 05:43:00;;;;;;;8.02;6.97;;;;;;;;;;2048395;28;99804;-12
2021/07/18 05:44:01;;;;;;;8.90;6.25;;;;;;;;;;2047999;28;99975;-13
2021/07/18 05:45:05;;;;;;;8.57;7.68;;;;;;;;;;2047917;28;99919;-12
2021/07/18 05:46:06;;;;;;;8.65;7.47;;;;;;;;;;2048328;28;100345;-12
2021/07/18 05:47:07;;;;;;;;;;;;;;;;;;2049037;28;99981;-12
2021/07/18 05:48:10;;;;;;;8.43;6.85;;;;;;;;;;2047273;28;100053;-14
2021/07/18 05:49:11;;;;;;;8.52;6.97;;;;;;;;;;2047884;28;99903;-13
2021/07/18 05:50:12;;;;;;;;;;;;;;;;;;2048831;28;99956;-12
2021/07/18 05:51:13;;;;;;;9.82;6.53;;;;;;;;;;2048720;28;99836;-14
2021/07/18 05:52:14;;;;;;;7.40;6.53;;;;;;;;;;2048293;28;100296;-15
2021/07/18 05:53:15;;;;;;;8.15;6.63;;;;;;;;;;2047563;28;100174;-12
2021/07/18 05:54:16;;;;;;;;;;;;;;;;;;2047952;28;100072;-13
2021/07/18 05:55:17;;;;;;;7.83;7.03;;;;;;;;;;2048654;28;100023;-12
2021/07/18 05:56:19;;;;;;;8.60;6.60;;;;;;;;;;2047467;28;99978;-14
2021/07/18 05:57:20;;;;;;;8.43;7.20;;;;;;;;;;2047881;28;99987;-13
2021/07/18 05:58:20;;;;;;;;;;;;;;;;;;2048748;28;99779;-12
2021/07/18 05:59:22;;;;;;;7.57;6.50;;;;;;;;;;2048300;28;99904;-14
2021/07/18 06:00:23;;;;;;;7.57;6.75;;;;;;;;;;2047348;28;100747;-14
2021/07/18 06:01:23;;;;;;;;;;;;;;;;;;2048172;28;99944;-12
2021/07/18 06:02:25;;;;;;;7.70;6.60;;;;;;;;;;2047841;28;100046;-12
2021/07/18 06:03:26;;;;;;;7.20;6.40;;;;;;;;;;2047362;28;100006;-12
2021/07/18 06:04:27;;;;;;;8.07;6.97;;;;;;;;;;2047493;28;100043;-12
2021/07/18 06:05:28;;;;;;;9.05;7.25;;;;;;;;;;2048464;28;99884;-14
2021/07/18 06:06:29;;;;;;;;;;;;;;;;;;2048653;28;101363;-14
2021/07/18 06:07:30;;;;;;;8.43;6.97;;;;;;;;;;2048140;28;100397;-13
2021/07/18 06:08:31;;;;;;;8.40;7.55;;;;;;;;;;2047725;28;100078;-13
2021/07/18 06:09:32;;;;;;;;;;;;;;;;;;2049057;28;99844;-12
2021/07/18 06:10:33;;;;;;;8.52;6.63;;;;;;;;;;2047573;28;100108;-14
2021/07/18 06:11:34;;;;;;;;;;;;;;;;;;2048246;28;99869;-12
2021/07/18 06:12:35;;;;;;;9.32;7.10;;;;;;;;;;2047530;28;99898;-12
2021/07/18 06:13:36;;;;;;;9.10;7.10;;;;;;;;;;2047233;28;100050;-14
2021/07/18 06:14:39;;;;;;;;;;;;;;;;;;2048399;28;100001;-12
2021/07/18 06:15:41;;;;;;;7.72;6.18;;;;;;;;;;2048209;28;99837;-14